Flight Track Log - Related Links

Times and Time Zones

All times are in EDT time to prevent confusion due to time zone crossing. See the EGF3682 flight status page for this flight to view local times or setup timezone preferences in your user account.

Time Position Orientation Groundspeed Altitude Reporting Facility
EDT Latitude Longitude Course Direction KTS MPH feet Rate Location/Type
Tue 07:47:51 PM 42.0000 -87.9333 90° East 167 192 1,300  Level Chicago TRACON
Tue 07:48:51 PM 42.0500 -87.9167 14° North 232 267 2,900 2,000 Climbing Chicago TRACON
Tue 07:49:51 PM 42.1000 -87.8500 45° Northeast 283 326 5,300 2,211 Climbing Chicago TRACON
Tue 07:50:00 PM 42.0443 -87.4069 79° East  Level FlightAware Approximate
Tue 07:50:26 PM 42.1242 -87.8156 47° Northeast 275 316 6,400  Level Chicago Center
Tue 07:51:00 PM 42.0695 -87.2403 78° East  Level FlightAware Approximate
Tue 07:51:28 PM 42.1428 -87.7133 76° East 293 337 8,800  Level Chicago Center
Tue 07:52:00 PM 42.0960 -87.0739 77° East  Level FlightAware Approximate
Tue 07:52:30 PM 42.1367 -87.5697 93° East 320 368 11,400  Level Chicago Center
Tue 07:53:00 PM 42.1167 -86.9068 90° East  Level FlightAware Approximate
Tue 07:53:33 PM 42.1319 -87.4408 93° East 347 399 12,900  Level Chicago Center
Tue 07:54:35 PM 42.1244 -87.2914 94° East 395 455 13,500 1,016 Climbing Chicago Center
Tue 07:55:37 PM 42.1156 -87.1272 94° East 438 504 15,000 1,597 Climbing Chicago Center
Tue 07:56:39 PM 42.1158 -86.9622 90° East 445 512 16,800 1,742 Climbing Chicago Center
Tue 07:57:41 PM 42.1244 -86.7628 87° East 447 514 18,600 1,500 Climbing Chicago Center
Tue 07:58:43 PM 42.1292 -86.5875 88° East 461 531 19,900 1,210 Climbing Chicago Center
Tue 07:59:45 PM 42.1342 -86.4117 88° East 469 540 21,100 1,210 Climbing Chicago Center
Tue 08:00:47 PM 42.1406 -86.2328 87° East 475 547 22,400 1,016 Climbing Chicago Center
Tue 08:01:49 PM 42.1436 -86.0517 89° East 481 554 23,200 768 Climbing Chicago Center
Tue 08:02:52 PM 42.1422 -85.8417 90° East 498 573 24,000 912 Climbing Chicago Center
Tue 08:03:54 PM 42.1400 -85.6517 91° East 509 586 25,100 1,452 Climbing Chicago Center
Tue 08:04:56 PM 42.1392 -85.4650 90° East 503 579 27,000 1,355 Climbing Chicago Center
Tue 08:05:58 PM 42.1364 -85.2811 91° East 498 573 27,900 968 Climbing Chicago Center
Tue 08:07:00 PM 42.1344 -85.0531 91° East 511 588 29,000 532 Climbing Chicago Center
Tue 08:08:02 PM 42.1311 -84.8606 91° East 515 593 29,000  Level Chicago Center
Tue 08:09:04 PM 42.1269 -84.6639 92° East 526 605 29,000  Level Chicago Center
Tue 08:10:06 PM 42.1144 -84.4672 95° East 528 608 29,000  Level Chicago Center
Tue 08:11:08 PM 42.1019 -84.2708 95° East 530 610 29,000 149 Level Chicago Center
Tue 08:12:07 PM 42.0844 -84.0611 96° East 513 590 29,300 1,008 Climbing Cleveland Center
Tue 08:13:07 PM 42.0708 -83.8814 96° East 503 579 31,000 850 Climbing Cleveland Center
Tue 08:14:07 PM 42.0592 -83.7100 95° East 502 578 31,000  Level Cleveland Center
Tue 08:15:07 PM 42.0458 -83.4969 95° East 519 597 31,000  Level Cleveland Center
Tue 08:16:07 PM 42.0322 -83.2950 95° East 524 603 31,000  Level Cleveland Center
Tue 08:17:07 PM 42.0175 -83.1181 96° East 536 617 31,000  Level Cleveland Center
Tue 08:18:07 PM 42.0008 -82.9164 96° East 542 624 31,000  Level Cleveland Center
Tue 08:19:07 PM 41.9858 -82.7203 96° East 537 618 31,000  Level Cleveland Center
Tue 08:20:07 PM 41.9728 -82.5269 95° East 531 611 31,000  Level Cleveland Center
Tue 08:21:07 PM 41.9569 -82.3394 96° East 521 600 31,000  Level Cleveland Center
Tue 08:22:07 PM 41.9389 -82.1492 97° East 516 594 31,000  Level Cleveland Center
Tue 08:23:07 PM 41.9228 -81.9367 96° East 516 594 31,000  Level Cleveland Center
Tue 08:24:07 PM 41.9083 -81.7467 96° East 525 604 31,000  Level Cleveland Center
Tue 08:25:07 PM 41.8911 -81.5539 97° East 520 598 31,000  Level Cleveland Center
Tue 08:26:07 PM 41.8719 -81.3583 97° East 518 596 31,000  Level Cleveland Center
Tue 08:27:07 PM 41.8542 -81.1658 97° East 523 602 31,000  Level Cleveland Center
Tue 08:28:07 PM 41.8383 -80.9733 96° East 518 596 31,000  Level Cleveland Center
Tue 08:29:07 PM 41.8200 -80.7811 97° East 523 602 31,000  Level Cleveland Center
Tue 08:30:07 PM 41.8017 -80.6083 98° East 523 602 31,000  Level Cleveland Center
Tue 08:31:07 PM 41.7828 -80.4189 98° East 518 596 31,000  Level Cleveland Center
Tue 08:32:07 PM 41.7636 -80.2269 98° East 518 596 31,000  Level Cleveland Center
Tue 08:33:07 PM 41.7439 -80.0294 98° East 526 605 31,000  Level Cleveland Center
Tue 08:34:07 PM 41.7261 -79.8431 97° East 520 598 31,000  Level Cleveland Center
Tue 08:35:07 PM 41.7017 -79.6347 99° East 520 598 31,000  Level Cleveland Center
Tue 08:36:07 PM 41.6856 -79.4597 97° East 513 590 31,000  Level Cleveland Center
Tue 08:37:07 PM 41.6625 -79.2544 98° East 513 590 31,000  Level Cleveland Center
Tue 08:38:07 PM 41.6436 -79.0800 98° East 521 600 31,000  Level Cleveland Center
Tue 08:39:07 PM 41.6203 -78.8889 99° East 521 600 31,000  Level Cleveland Center
Tue 08:40:07 PM 41.5983 -78.6950 99° East 521 600 31,000  Level Cleveland Center
Tue 08:41:07 PM 41.5764 -78.5042 99° East 521 600 31,000  Level Cleveland Center
Tue 08:42:18 PM 41.5492 -78.2694 99° East 504 580 31,000  Level New York Center
Tue 08:43:19 PM 41.5258 -78.0783 99° East 509 586 31,000  Level New York Center
Tue 08:44:17 PM 41.5000 -77.8844 100° East 516 594 31,000  Level New York Center
Tue 08:45:18 PM 41.4736 -77.6961 101° East 516 594 31,000  Level New York Center
Tue 08:46:18 PM 41.4469 -77.5078 101° East 516 594 31,000 -250 Level New York Center
Tue 08:47:18 PM 41.4178 -77.3194 102° East 516 594 30,500 -744 Descending New York Center
Tue 08:48:19 PM 41.3906 -77.1342 101° East 516 594 29,500 -756 Descending New York Center
Tue 08:49:17 PM 41.3647 -76.9492 100° East 516 594 29,000 -254 Descending New York Center
Tue 08:50:17 PM 41.3328 -76.7639 103° East 516 594 29,000 -1,180 Level New York Center
Tue 08:51:19 PM 41.2856 -76.5803 109° East 516 594 26,600 -2,975 Descending New York Center
Tue 08:52:16 PM 41.2358 -76.3994 110° East 521 600 23,100 -3,458 Descending New York Center
Tue 08:53:17 PM 41.1839 -76.2186 111° Southeast 521 600 19,800 -2,683 Descending New York Center
Tue 08:54:19 PM 41.1453 -76.0583 108° East 487 560 17,600 -2,100 Descending New York Center
Tue 08:55:17 PM 41.1061 -75.9122 110° East 471 542 15,600 -1,881 Descending New York Center
Tue 08:56:17 PM 41.0625 -75.7575 110° East 461 531 13,900 -1,300 Descending New York Center
Tue 08:57:17 PM 41.0172 -75.5947 110° East 434 499 13,000 -893 Descending New York Center
Tue 08:58:18 PM 40.9811 -75.4600 110° East 411 473 12,100 -1,190 Descending New York Center
Tue 08:59:18 PM 40.9481 -75.3481 111° Southeast 378 435 10,600 -1,537 Descending New York Center
Tue 09:00:19 PM 40.9111 -75.2219 111° Southeast 352 405 9,000 -1,587 Descending New York Center
Tue 09:01:19 PM 40.8800 -75.1072 110° East 330 380 7,400 -1,008 Descending New York Center
Tue 09:02:18 PM 40.8483 -75.0011 111° Southeast 320 368 7,000 -202 Descending New York Center
Tue 09:03:18 PM 40.8464 -74.8831 91° East 309 356 7,000 -50 Level New York Center
Tue 09:04:17 PM 40.8561 -74.7767 83° East 309 356 6,900 -605 Descending New York Center
Tue 09:05:17 PM 40.8683 -74.6647 82° East 309 356 5,800 -950 Descending New York Center
Tue 09:06:17 PM 40.8781 -74.5528 83° East 309 356 5,000 -393 Descending New York Center
Tue 09:07:19 PM 40.8900 -74.4436 82° East 309 356 5,000  Level New York Center
Tue 09:08:19 PM 40.9017 -74.3317 82° East 309 356 5,000  Level New York Center
Tue 09:09:20 PM 40.9167 -74.2167 80° East 300 345 5,000 -645 Level New York TRACON
Tue 09:10:20 PM 40.8833 -74.1167 114° Southeast 282 325 3,700 -1,200 Descending New York TRACON
Tue 09:11:20 PM 40.8167 -74.1000 169° South 220 253 2,600 -1,100 Descending New York TRACON

Login

Don't have an account? Register now (free) for customized features, flight alerts, and more!